sensor_id;sensor_type;location;lat;lon;timestamp;pressure;altitude;pressure_sealevel;temperature;humidity
21236;BME280;10775;42.678;26.324;2022-10-18T00:01:35;100253.66;;;15.46;53.24
21236;BME280;10775;42.678;26.324;2022-10-18T00:04:03;100258.94;;;16.03;51.87
21236;BME280;10775;42.678;26.324;2022-10-18T00:06:28;100255.06;;;16.23;51.30
21236;BME280;10775;42.678;26.324;2022-10-18T00:08:54;100250.50;;;15.81;50.27
21236;BME280;10775;42.678;26.324;2022-10-18T00:11:20;100256.53;;;14.63;55.37
21236;BME280;10775;42.678;26.324;2022-10-18T00:13:45;100232.25;;;15.68;52.75
21236;BME280;10775;42.678;26.324;2022-10-18T00:16:13;100251.97;;;15.99;51.71
21236;BME280;10775;42.678;26.324;2022-10-18T00:18:40;100237.84;;;16.03;51.63
21236;BME280;10775;42.678;26.324;2022-10-18T00:21:09;100233.28;;;16.13;51.20
21236;BME280;10775;42.678;26.324;2022-10-18T00:23:35;100230.59;;;16.15;51.32
21236;BME280;10775;42.678;26.324;2022-10-18T00:26:09;100236.69;;;16.18;50.96
21236;BME280;10775;42.678;26.324;2022-10-18T00:28:35;100243.03;;;16.08;51.26
21236;BME280;10775;42.678;26.324;2022-10-18T00:31:16;100239.78;;;15.92;51.53
21236;BME280;10775;42.678;26.324;2022-10-18T00:33:44;100235.34;;;15.94;51.48
21236;BME280;10775;42.678;26.324;2022-10-18T00:36:11;100234.63;;;15.84;51.88
21236;BME280;10775;42.678;26.324;2022-10-18T00:38:38;100229.28;;;15.91;51.87
21236;BME280;10775;42.678;26.324;2022-10-18T00:41:07;100227.44;;;15.94;51.61
21236;BME280;10775;42.678;26.324;2022-10-18T00:44:55;100224.13;;;15.83;51.96
21236;BME280;10775;42.678;26.324;2022-10-18T00:46:54;100220.22;;;16.04;51.29
21236;BME280;10775;42.678;26.324;2022-10-18T00:49:25;100213.81;;;16.19;50.99
21236;BME280;10775;42.678;26.324;2022-10-18T00:51:56;100217.47;;;16.12;50.93
21236;BME280;10775;42.678;26.324;2022-10-18T00:54:23;100213.31;;;15.98;51.30
21236;BME280;10775;42.678;26.324;2022-10-18T00:56:50;100217.00;;;15.88;51.51
21236;BME280;10775;42.678;26.324;2022-10-18T00:59:17;100208.25;;;15.84;51.65
21236;BME280;10775;42.678;26.324;2022-10-18T01:01:44;100217.94;;;15.85;51.69
21236;BME280;10775;42.678;26.324;2022-10-18T01:04:11;100218.72;;;15.89;51.21
21236;BME280;10775;42.678;26.324;2022-10-18T01:09:32;100204.88;;;15.76;51.97
21236;BME280;10775;42.678;26.324;2022-10-18T01:15:24;100198.13;;;15.58;52.30
21236;BME280;10775;42.678;26.324;2022-10-18T01:24:14;100205.81;;;15.75;51.94
21236;BME280;10775;42.678;26.324;2022-10-18T01:32:20;100190.75;;;15.25;52.79
21236;BME280;10775;42.678;26.324;2022-10-18T01:34:49;100190.41;;;14.89;54.04
21236;BME280;10775;42.678;26.324;2022-10-18T01:37:16;100187.91;;;15.38;52.77
21236;BME280;10775;42.678;26.324;2022-10-18T01:39:45;100192.25;;;15.41;52.59
21236;BME280;10775;42.678;26.324;2022-10-18T01:42:13;100191.34;;;15.43;52.61
21236;BME280;10775;42.678;26.324;2022-10-18T01:44:40;100194.03;;;15.39;52.55
21236;BME280;10775;42.678;26.324;2022-10-18T01:47:09;100195.50;;;15.57;52.22
21236;BME280;10775;42.678;26.324;2022-10-18T01:49:35;100191.09;;;15.59;52.13
21236;BME280;10775;42.678;26.324;2022-10-18T01:52:01;100200.63;;;15.66;51.91
21236;BME280;10775;42.678;26.324;2022-10-18T01:54:32;100195.50;;;15.58;51.95
21236;BME280;10775;42.678;26.324;2022-10-18T01:57:04;100192.38;;;15.33;52.58
21236;BME280;10775;42.678;26.324;2022-10-18T02:02:33;100181.63;;;15.47;52.17
21236;BME280;10775;42.678;26.324;2022-10-18T02:07:43;100176.56;;;15.33;52.58
21236;BME280;10775;42.678;26.324;2022-10-18T02:10:28;100174.19;;;15.16;53.02
21236;BME280;10775;42.678;26.324;2022-10-18T02:12:56;100176.78;;;15.19;52.84
21236;BME280;10775;42.678;26.324;2022-10-18T02:15:29;100166.09;;;15.29;52.71
21236;BME280;10775;42.678;26.324;2022-10-18T02:17:55;100168.72;;;15.30;52.51
21236;BME280;10775;42.678;26.324;2022-10-18T02:20:24;100167.22;;;15.12;53.03
21236;BME280;10775;42.678;26.324;2022-10-18T02:22:52;100172.38;;;15.20;52.96
21236;BME280;10775;42.678;26.324;2022-10-18T02:25:26;100174.09;;;15.22;53.00
21236;BME280;10775;42.678;26.324;2022-10-18T02:27:53;100179.59;;;15.07;53.13
21236;BME280;10775;42.678;26.324;2022-10-18T02:30:23;100167.22;;;15.12;53.08
21236;BME280;10775;42.678;26.324;2022-10-18T02:33:14;100172.63;;;15.03;53.17
21236;BME280;10775;42.678;26.324;2022-10-18T02:35:43;100181.31;;;15.08;53.37
21236;BME280;10775;42.678;26.324;2022-10-18T02:38:13;100177.63;;;15.21;52.62
21236;BME280;10775;42.678;26.324;2022-10-18T02:40:40;100178.63;;;15.13;52.94
21236;BME280;10775;42.678;26.324;2022-10-18T02:43:06;100185.75;;;15.06;53.17
21236;BME280;10775;42.678;26.324;2022-10-18T02:45:32;100188.25;;;15.17;52.69
21236;BME280;10775;42.678;26.324;2022-10-18T02:47:58;100186.53;;;15.13;52.67
21236;BME280;10775;42.678;26.324;2022-10-18T02:50:24;100180.28;;;15.20;52.36
21236;BME280;10775;42.678;26.324;2022-10-18T02:52:50;100182.00;;;15.21;52.60
21236;BME280;10775;42.678;26.324;2022-10-18T02:55:15;100181.19;;;15.17;52.52
21236;BME280;10775;42.678;26.324;2022-10-18T02:57:41;100183.16;;;15.03;52.81
21236;BME280;10775;42.678;26.324;2022-10-18T03:00:07;100184.06;;;15.04;52.85
21236;BME280;10775;42.678;26.324;2022-10-18T03:02:33;100177.06;;;14.98;52.79
21236;BME280;10775;42.678;26.324;2022-10-18T03:04:59;100180.56;;;15.02;52.92
21236;BME280;10775;42.678;26.324;2022-10-18T03:07:24;100178.78;;;15.04;52.78
21236;BME280;10775;42.678;26.324;2022-10-18T03:09:50;100184.66;;;15.21;52.29
21236;BME280;10775;42.678;26.324;2022-10-18T03:12:16;100183.13;;;15.06;52.52
21236;BME280;10775;42.678;26.324;2022-10-18T03:14:41;100176.09;;;15.05;52.75
21236;BME280;10775;42.678;26.324;2022-10-18T03:17:07;100180.34;;;15.15;52.52
21236;BME280;10775;42.678;26.324;2022-10-18T03:19:33;100182.13;;;15.15;52.20
21236;BME280;10775;42.678;26.324;2022-10-18T03:22:00;100178.09;;;14.91;52.81
21236;BME280;10775;42.678;26.324;2022-10-18T03:24:25;100174.59;;;14.87;53.04
21236;BME280;10775;42.678;26.324;2022-10-18T03:26:51;100179.69;;;15.01;52.76
21236;BME280;10775;42.678;26.324;2022-10-18T03:29:17;100180.84;;;14.82;53.12
21236;BME280;10775;42.678;26.324;2022-10-18T03:31:42;100195.63;;;14.92;53.08
21236;BME280;10775;42.678;26.324;2022-10-18T03:34:08;100187.81;;;14.84;52.90
21236;BME280;10775;42.678;26.324;2022-10-18T03:36:33;100190.34;;;14.92;52.82
21236;BME280;10775;42.678;26.324;2022-10-18T03:38:59;100197.19;;;15.05;52.57
21236;BME280;10775;42.678;26.324;2022-10-18T03:41:25;100195.63;;;14.92;52.73
21236;BME280;10775;42.678;26.324;2022-10-18T03:43:51;100195.63;;;14.92;52.82
21236;BME280;10775;42.678;26.324;2022-10-18T03:46:16;100193.94;;;14.85;52.71
21236;BME280;10775;42.678;26.324;2022-10-18T03:48:42;100207.09;;;14.86;52.81
21236;BME280;10775;42.678;26.324;2022-10-18T03:51:08;100205.28;;;14.91;52.72
21236;BME280;10775;42.678;26.324;2022-10-18T03:53:33;100202.81;;;14.81;52.93
21236;BME280;10775;42.678;26.324;2022-10-18T03:55:59;100204.63;;;14.74;53.09
21236;BME280;10775;42.678;26.324;2022-10-18T03:58:24;100201.19;;;14.70;53.05
21236;BME280;10775;42.678;26.324;2022-10-18T04:00:51;100205.53;;;13.88;53.13
21236;BME280;10775;42.678;26.324;2022-10-18T04:03:18;100208.59;;;13.34;56.94
21236;BME280;10775;42.678;26.324;2022-10-18T04:05:45;100198.28;;;14.14;55.00
21236;BME280;10775;42.678;26.324;2022-10-18T04:08:11;100206.88;;;14.30;54.26
21236;BME280;10775;42.678;26.324;2022-10-18T04:10:37;100203.28;;;14.38;54.34
21236;BME280;10775;42.678;26.324;2022-10-18T04:13:05;100205.09;;;14.32;54.17
21236;BME280;10775;42.678;26.324;2022-10-18T04:15:30;100201.44;;;14.46;53.74
21236;BME280;10775;42.678;26.324;2022-10-18T04:17:57;100193.53;;;14.46;53.94
21236;BME280;10775;42.678;26.324;2022-10-18T04:20:23;100205.78;;;14.53;53.46
21236;BME280;10775;42.678;26.324;2022-10-18T04:22:49;100204.00;;;14.55;53.31
21236;BME280;10775;42.678;26.324;2022-10-18T04:25:15;100205.72;;;14.56;53.48
21236;BME280;10775;42.678;26.324;2022-10-18T04:27:41;100206.63;;;14.53;53.59
21236;BME280;10775;42.678;26.324;2022-10-18T04:30:07;100192.47;;;14.64;53.24
21236;BME280;10775;42.678;26.324;2022-10-18T04:32:33;100202.09;;;14.66;52.94
21236;BME280;10775;42.678;26.324;2022-10-18T04:35:00;100208.06;;;14.81;52.79
21236;BME280;10775;42.678;26.324;2022-10-18T04:37:26;100208.03;;;14.84;52.57
21236;BME280;10775;42.678;26.324;2022-10-18T04:39:52;100202.09;;;14.68;52.95
21236;BME280;10775;42.678;26.324;2022-10-18T04:42:17;100197.84;;;14.51;53.15
21236;BME280;10775;42.678;26.324;2022-10-18T04:44:43;100200.00;;;14.16;54.34
21236;BME280;10775;42.678;26.324;2022-10-18T04:47:09;100202.34;;;14.45;53.70
21236;BME280;10775;42.678;26.324;2022-10-18T04:49:37;100208.34;;;14.56;53.26
21236;BME280;10775;42.678;26.324;2022-10-18T04:52:03;100202.09;;;14.65;52.93
21236;BME280;10775;42.678;26.324;2022-10-18T04:54:28;100210.22;;;13.55;54.79
21236;BME280;10775;42.678;26.324;2022-10-18T04:56:54;100206.91;;;14.27;54.35
21236;BME280;10775;42.678;26.324;2022-10-18T04:59:20;100207.50;;;14.52;53.24
21236;BME280;10775;42.678;26.324;2022-10-18T05:01:46;100209.06;;;14.70;52.94
21236;BME280;10775;42.678;26.324;2022-10-18T05:04:11;100209.09;;;14.69;52.57
21236;BME280;10775;42.678;26.324;2022-10-18T05:06:37;100208.34;;;14.57;52.96
21236;BME280;10775;42.678;26.324;2022-10-18T05:09:02;100211.00;;;14.51;53.29
21236;BME280;10775;42.678;26.324;2022-10-18T05:11:28;100207.56;;;14.48;53.45
21236;BME280;10775;42.678;26.324;2022-10-18T05:13:54;100216.25;;;14.54;53.27
21236;BME280;10775;42.678;26.324;2022-10-18T05:16:20;100204.78;;;14.63;52.87
21236;BME280;10775;42.678;26.324;2022-10-18T05:18:45;100213.53;;;14.62;52.74
21236;BME280;10775;42.678;26.324;2022-10-18T05:21:11;100203.00;;;14.65;52.82
21236;BME280;10775;42.678;26.324;2022-10-18T05:23:37;100204.63;;;14.75;52.56
21236;BME280;10775;42.678;26.324;2022-10-18T05:26:05;100201.06;;;14.78;52.38
21236;BME280;10775;42.678;26.324;2022-10-18T05:28:32;100205.44;;;14.81;52.13
21236;BME280;10775;42.678;26.324;2022-10-18T05:31:02;100198.50;;;14.72;52.47
21236;BME280;10775;42.678;26.324;2022-10-18T05:33:28;100202.00;;;14.75;52.57
21236;BME280;10775;42.678;26.324;2022-10-18T05:35:57;100195.81;;;14.78;52.21
21236;BME280;10775;42.678;26.324;2022-10-18T05:38:24;100201.19;;;14.69;52.63
21236;BME280;10775;42.678;26.324;2022-10-18T05:40:49;100201.09;;;14.76;51.94
21236;BME280;10775;42.678;26.324;2022-10-18T05:43:15;100206.25;;;14.86;52.12
21236;BME280;10775;42.678;26.324;2022-10-18T05:45:50;100199.81;;;14.34;53.15
21236;BME280;10775;42.678;26.324;2022-10-18T05:48:19;100205.13;;;14.29;53.60
21236;BME280;10775;42.678;26.324;2022-10-18T05:50:44;100205.00;;;14.39;53.31
21236;BME280;10775;42.678;26.324;2022-10-18T05:53:10;100204.19;;;14.33;53.21
21236;BME280;10775;42.678;26.324;2022-10-18T05:55:36;100206.00;;;14.30;53.72
21236;BME280;10775;42.678;26.324;2022-10-18T05:58:02;100205.63;;;14.62;52.89
21236;BME280;10775;42.678;26.324;2022-10-18T06:00:28;100208.78;;;14.93;52.83
21236;BME280;10775;42.678;26.324;2022-10-18T06:02:57;100205.06;;;15.05;52.34
21236;BME280;10775;42.678;26.324;2022-10-18T06:05:23;100205.84;;;15.13;52.22
21236;BME280;10775;42.678;26.324;2022-10-18T06:07:49;100207.44;;;15.25;52.62
21236;BME280;10775;42.678;26.324;2022-10-18T06:10:14;100197.69;;;15.29;52.22
21236;BME280;10775;42.678;26.324;2022-10-18T06:12:40;100205.38;;;15.44;53.06
21236;BME280;10775;42.678;26.324;2022-10-18T06:15:06;100201.84;;;15.45;52.79
21236;BME280;10775;42.678;26.324;2022-10-18T06:17:31;100201.00;;;15.43;53.25
21236;BME280;10775;42.678;26.324;2022-10-18T06:19:57;100203.28;;;15.64;52.97
21236;BME280;10775;42.678;26.324;2022-10-18T06:22:23;100207.75;;;15.59;52.84
21236;BME280;10775;42.678;26.324;2022-10-18T06:24:48;100205.97;;;15.63;52.84
21236;BME280;10775;42.678;26.324;2022-10-18T06:27:14;100205.91;;;15.68;52.59
21236;BME280;10775;42.678;26.324;2022-10-18T06:29:40;100205.09;;;15.62;52.38
21236;BME280;10775;42.678;26.324;2022-10-18T06:32:06;100212.97;;;15.64;52.82
21236;BME280;10775;42.678;26.324;2022-10-18T06:34:33;100206.66;;;15.76;52.60
21236;BME280;10775;42.678;26.324;2022-10-18T06:36:59;100201.53;;;15.65;52.84
21236;BME280;10775;42.678;26.324;2022-10-18T06:39:25;100203.97;;;15.79;52.08
21236;BME280;10775;42.678;26.324;2022-10-18T06:41:51;100203.88;;;15.83;52.75
21236;BME280;10775;42.678;26.324;2022-10-18T06:44:16;100192.41;;;15.86;52.51
21236;BME280;10775;42.678;26.324;2022-10-18T06:46:43;100194.13;;;16.80;50.65
21236;BME280;10775;42.678;26.324;2022-10-18T06:49:10;100182.34;;;18.37;47.10
21236;BME280;10775;42.678;26.324;2022-10-18T06:51:36;100183.88;;;18.77;45.56
21236;BME280;10775;42.678;26.324;2022-10-18T06:54:02;100181.59;;;17.65;47.94
21236;BME280;10775;42.678;26.324;2022-10-18T06:56:28;100184.09;;;18.67;46.37
21236;BME280;10775;42.678;26.324;2022-10-18T06:58:54;100184.56;;;18.21;47.13
21236;BME280;10775;42.678;26.324;2022-10-18T07:01:20;100178.97;;;18.93;46.00
21236;BME280;10775;42.678;26.324;2022-10-18T07:03:47;100168.59;;;18.24;47.83
21236;BME280;10775;42.678;26.324;2022-10-18T07:06:16;100169.59;;;19.10;46.19
21236;BME280;10775;42.678;26.324;2022-10-18T07:08:42;100170.22;;;18.59;47.79
21236;BME280;10775;42.678;26.324;2022-10-18T07:11:14;100169.00;;;19.01;46.60
21236;BME280;10775;42.678;26.324;2022-10-18T07:13:40;100166.56;;;18.63;47.91
21236;BME280;10775;42.678;26.324;2022-10-18T07:16:17;100159.44;;;19.78;45.66
21236;BME280;10775;42.678;26.324;2022-10-18T07:18:46;100149.09;;;20.20;44.59
21236;BME280;10775;42.678;26.324;2022-10-18T07:21:14;100148.81;;;19.78;44.87
21236;BME280;10775;42.678;26.324;2022-10-18T07:23:42;100152.59;;;19.71;44.86
21236;BME280;10775;42.678;26.324;2022-10-18T07:26:18;100144.81;;;19.91;44.79
21236;BME280;10775;42.678;26.324;2022-10-18T07:28:46;100140.91;;;20.02;44.66
21236;BME280;10775;42.678;26.324;2022-10-18T07:31:12;100134.38;;;20.35;43.96
21236;BME280;10775;42.678;26.324;2022-10-18T07:33:38;100131.91;;;20.31;44.02
21236;BME280;10775;42.678;26.324;2022-10-18T07:36:06;100134.47;;;20.57;43.89
21236;BME280;10775;42.678;26.324;2022-10-18T07:38:32;100140.16;;;20.70;43.85
21236;BME280;10775;42.678;26.324;2022-10-18T07:41:03;100133.19;;;20.68;43.94
21236;BME280;10775;42.678;26.324;2022-10-18T07:43:31;100130.13;;;20.55;44.30
21236;BME280;10775;42.678;26.324;2022-10-18T07:45:59;100125.63;;;20.57;44.45
21236;BME280;10775;42.678;26.324;2022-10-18T07:48:25;100113.97;;;20.83;43.16
21236;BME280;10775;42.678;26.324;2022-10-18T07:50:51;100125.25;;;20.90;43.66
21236;BME280;10775;42.678;26.324;2022-10-18T07:53:17;100123.03;;;20.79;42.03
21236;BME280;10775;42.678;26.324;2022-10-18T07:55:43;100119.72;;;20.72;44.60
21236;BME280;10775;42.678;26.324;2022-10-18T07:58:10;100127.53;;;20.77;44.85
21236;BME280;10775;42.678;26.324;2022-10-18T08:00:35;100124.81;;;20.55;44.78
21236;BME280;10775;42.678;26.324;2022-10-18T08:03:01;100118.50;;;20.34;40.42
21236;BME280;10775;42.678;26.324;2022-10-18T08:05:27;100120.63;;;20.48;44.38
21236;BME280;10775;42.678;26.324;2022-10-18T08:07:54;100110.13;;;20.68;44.15
21236;BME280;10775;42.678;26.324;2022-10-18T08:10:20;100120.31;;;20.57;43.65
21236;BME280;10775;42.678;26.324;2022-10-18T08:12:46;100105.63;;;20.47;43.06
21236;BME280;10775;42.678;26.324;2022-10-18T08:15:12;100111.88;;;20.46;42.89
21236;BME280;10775;42.678;26.324;2022-10-18T08:17:38;100105.31;;;20.56;42.84
21236;BME280;10775;42.678;26.324;2022-10-18T08:20:04;100110.81;;;20.50;41.83
21236;BME280;10775;42.678;26.324;2022-10-18T08:22:30;100117.94;;;20.26;43.06
21236;BME280;10775;42.678;26.324;2022-10-18T08:24:56;100104.69;;;20.01;39.54
21236;BME280;10775;42.678;26.324;2022-10-18T08:27:21;100098.75;;;20.41;42.72
21236;BME280;10775;42.678;26.324;2022-10-18T08:29:49;100103.00;;;20.45;43.40
21236;BME280;10775;42.678;26.324;2022-10-18T08:32:14;100103.91;;;20.46;43.29
21236;BME280;10775;42.678;26.324;2022-10-18T08:34:40;100104.06;;;20.41;43.01
21236;BME280;10775;42.678;26.324;2022-10-18T08:37:06;100090.47;;;20.02;43.66
21236;BME280;10775;42.678;26.324;2022-10-18T08:39:31;100090.50;;;20.25;43.56
21236;BME280;10775;42.678;26.324;2022-10-18T08:44:43;100086.09;;;20.24;43.44
21236;BME280;10775;42.678;26.324;2022-10-18T08:50:04;100081.91;;;20.18;43.28
21236;BME280;10775;42.678;26.324;2022-10-18T08:55:28;100082.72;;;20.20;42.90
21236;BME280;10775;42.678;26.324;2022-10-18T08:57:58;100074.41;;;19.81;42.86
21236;BME280;10775;42.678;26.324;2022-10-18T09:00:27;100077.19;;;19.51;43.38
21236;BME280;10775;42.678;26.324;2022-10-18T09:03:21;100070.84;;;19.82;43.60
21236;BME280;10775;42.678;26.324;2022-10-18T09:05:54;100070.34;;;19.96;43.38
21236;BME280;10775;42.678;26.324;2022-10-18T09:11:41;100062.03;;;20.05;43.30
21236;BME280;10775;42.678;26.324;2022-10-18T09:20:23;100065.53;;;19.82;43.55
21236;BME280;10775;42.678;26.324;2022-10-18T09:25:08;100050.00;;;20.20;42.62
21236;BME280;10775;42.678;26.324;2022-10-18T09:27:51;100049.44;;;20.34;42.36
21236;BME280;10775;42.678;26.324;2022-10-18T09:30:29;100047.53;;;20.37;41.84
21236;BME280;10775;42.678;26.324;2022-10-18T09:36:03;100040.75;;;20.30;42.08
21236;BME280;10775;42.678;26.324;2022-10-18T09:38:50;100043.31;;;20.32;42.38
21236;BME280;10775;42.678;26.324;2022-10-18T09:43:51;100038.44;;;19.97;42.72
21236;BME280;10775;42.678;26.324;2022-10-18T09:46:21;100032.84;;;20.05;42.90
21236;BME280;10775;42.678;26.324;2022-10-18T09:48:53;100021.22;;;20.31;42.37
21236;BME280;10775;42.678;26.324;2022-10-18T09:51:27;100032.19;;;20.22;42.96
21236;BME280;10775;42.678;26.324;2022-10-18T09:56:54;100014.31;;;19.80;44.33
21236;BME280;10775;42.678;26.324;2022-10-18T09:59:45;100004.47;;;20.07;44.40
21236;BME280;10775;42.678;26.324;2022-10-18T10:02:13;100006.75;;;20.16;43.68
21236;BME280;10775;42.678;26.324;2022-10-18T10:04:39;100004.78;;;20.22;43.17
21236;BME280;10775;42.678;26.324;2022-10-18T10:07:13;100003.63;;;20.29;44.22
21236;BME280;10775;42.678;26.324;2022-10-18T10:09:57;99990.09;;;20.13;44.28
21236;BME280;10775;42.678;26.324;2022-10-18T10:12:30;99981.94;;;20.17;43.61
21236;BME280;10775;42.678;26.324;2022-10-18T10:15:08;99982.69;;;20.21;44.38
21236;BME280;10775;42.678;26.324;2022-10-18T10:17:34;99971.53;;;19.64;44.67
21236;BME280;10775;42.678;26.324;2022-10-18T10:20:22;99973.00;;;19.96;44.93
21236;BME280;10775;42.678;26.324;2022-10-18T10:22:50;99964.84;;;19.79;44.75
21236;BME280;10775;42.678;26.324;2022-10-18T10:25:32;99954.53;;;19.93;44.81
21236;BME280;10775;42.678;26.324;2022-10-18T10:28:04;99946.00;;;19.85;44.45
21236;BME280;10775;42.678;26.324;2022-10-18T10:30:35;99940.31;;;20.18;44.41
21236;BME280;10775;42.678;26.324;2022-10-18T10:33:01;99935.03;;;19.71;44.86
21236;BME280;10775;42.678;26.324;2022-10-18T10:35:33;99930.16;;;19.35;44.59
21236;BME280;10775;42.678;26.324;2022-10-18T10:38:00;99923.69;;;19.42;44.90
21236;BME280;10775;42.678;26.324;2022-10-18T10:40:30;99921.56;;;19.28;45.46
21236;BME280;10775;42.678;26.324;2022-10-18T10:42:59;99921.41;;;20.04;44.70
21236;BME280;10775;42.678;26.324;2022-10-18T10:45:28;99909.50;;;20.36;44.05
21236;BME280;10775;42.678;26.324;2022-10-18T10:48:03;99909.47;;;20.59;43.51
21236;BME280;10775;42.678;26.324;2022-10-18T10:50:29;99899.13;;;20.74;42.53
21236;BME280;10775;42.678;26.324;2022-10-18T10:52:55;99901.31;;;20.64;42.91
21236;BME280;10775;42.678;26.324;2022-10-18T10:55:29;99896.31;;;20.12;43.66
21236;BME280;10775;42.678;26.324;2022-10-18T10:57:58;99891.50;;;20.42;43.76
21236;BME280;10775;42.678;26.324;2022-10-18T11:00:37;99886.78;;;20.51;43.49
21236;BME280;10775;42.678;26.324;2022-10-18T11:03:14;99882.03;;;20.59;43.93
21236;BME280;10775;42.678;26.324;2022-10-18T11:05:52;99882.97;;;20.14;43.31
21236;BME280;10775;42.678;26.324;2022-10-18T11:08:26;99864.25;;;19.95;45.35
21236;BME280;10775;42.678;26.324;2022-10-18T11:11:12;99879.19;;;19.97;44.53
21236;BME280;10775;42.678;26.324;2022-10-18T11:14:12;99868.19;;;20.07;44.85
21236;BME280;10775;42.678;26.324;2022-10-18T11:20:22;99866.88;;;19.73;44.55
21236;BME280;10775;42.678;26.324;2022-10-18T11:23:00;99847.09;;;19.82;44.32
21236;BME280;10775;42.678;26.324;2022-10-18T11:25:38;99846.47;;;19.75;45.13
21236;BME280;10775;42.678;26.324;2022-10-18T11:28:27;99839.66;;;20.56;44.20
21236;BME280;10775;42.678;26.324;2022-10-18T11:31:07;99828.91;;;20.59;42.53
21236;BME280;10775;42.678;26.324;2022-10-18T11:34:08;99828.09;;;20.57;44.08
21236;BME280;10775;42.678;26.324;2022-10-18T11:37:06;99821.06;;;20.76;42.77
21236;BME280;10775;42.678;26.324;2022-10-18T11:44:56;99801.72;;;20.73;42.25
21236;BME280;10775;42.678;26.324;2022-10-18T11:47:52;99794.91;;;20.45;44.08
21236;BME280;10775;42.678;26.324;2022-10-18T11:50:49;99794.59;;;20.73;43.57
21236;BME280;10775;42.678;26.324;2022-10-18T11:53:37;99789.75;;;20.83;43.41
21236;BME280;10775;42.678;26.324;2022-10-18T12:01:37;99772.97;;;20.62;42.40
21236;BME280;10775;42.678;26.324;2022-10-18T12:04:13;99773.88;;;20.20;43.12
21236;BME280;10775;42.678;26.324;2022-10-18T12:06:45;99772.34;;;20.76;42.27
21236;BME280;10775;42.678;26.324;2022-10-18T12:09:33;99769.34;;;20.83;42.71
21236;BME280;10775;42.678;26.324;2022-10-18T12:12:24;99764.19;;;20.80;42.30
21236;BME280;10775;42.678;26.324;2022-10-18T12:15:02;99755.00;;;20.88;42.91
21236;BME280;10775;42.678;26.324;2022-10-18T12:17:34;99751.28;;;20.92;42.96
21236;BME280;10775;42.678;26.324;2022-10-18T12:20:13;99755.66;;;20.93;43.06
21236;BME280;10775;42.678;26.324;2022-10-18T12:23:02;99750.28;;;20.94;43.44
21236;BME280;10775;42.678;26.324;2022-10-18T12:25:32;99735.16;;;20.76;43.86
21236;BME280;10775;42.678;26.324;2022-10-18T12:28:06;99747.97;;;20.87;42.95
21236;BME280;10775;42.678;26.324;2022-10-18T12:33:26;99736.44;;;20.67;43.41
21236;BME280;10775;42.678;26.324;2022-10-18T12:39:07;99732.16;;;20.83;43.98
21236;BME280;10775;42.678;26.324;2022-10-18T12:41:32;99729.72;;;20.98;43.14
21236;BME280;10775;42.678;26.324;2022-10-18T12:44:16;99723.16;;;20.86;43.78
21236;BME280;10775;42.678;26.324;2022-10-18T12:49:12;99725.41;;;20.76;44.47
21236;BME280;10775;42.678;26.324;2022-10-18T12:51:51;99713.97;;;20.74;44.35
21236;BME280;10775;42.678;26.324;2022-10-18T12:54:24;99717.47;;;20.56;44.76
21236;BME280;10775;42.678;26.324;2022-10-18T12:56:51;99717.91;;;20.66;44.41
21236;BME280;10775;42.678;26.324;2022-10-18T13:09:33;99701.25;;;20.62;45.32
21236;BME280;10775;42.678;26.324;2022-10-18T13:17:20;99701.84;;;20.69;44.89
21236;BME280;10775;42.678;26.324;2022-10-18T13:19:54;99700.53;;;20.58;44.68
21236;BME280;10775;42.678;26.324;2022-10-18T13:28:04;99694.97;;;20.42;45.85
21236;BME280;10775;42.678;26.324;2022-10-18T13:30:54;99695.66;;;20.48;45.42
21236;BME280;10775;42.678;26.324;2022-10-18T13:33:31;99691.13;;;20.50;45.21
21236;BME280;10775;42.678;26.324;2022-10-18T13:36:20;99682.78;;;20.38;45.80
21236;BME280;10775;42.678;26.324;2022-10-18T13:41:28;99681.66;;;20.44;45.69
21236;BME280;10775;42.678;26.324;2022-10-18T13:47:07;99679.94;;;20.43;44.81
21236;BME280;10775;42.678;26.324;2022-10-18T14:00:07;99662.88;;;20.28;45.71
21236;BME280;10775;42.678;26.324;2022-10-18T14:08:31;99663.47;;;19.94;45.98
21236;BME280;10775;42.678;26.324;2022-10-18T14:13:33;99664.03;;;20.02;45.63
21236;BME280;10775;42.678;26.324;2022-10-18T14:16:06;99657.97;;;19.98;45.12
21236;BME280;10775;42.678;26.324;2022-10-18T14:18:36;99654.13;;;20.06;45.87
21236;BME280;10775;42.678;26.324;2022-10-18T14:21:15;99645.97;;;20.10;45.81
21236;BME280;10775;42.678;26.324;2022-10-18T14:23:44;99646.69;;;19.93;45.96
21236;BME280;10775;42.678;26.324;2022-10-18T14:26:18;99645.84;;;19.93;45.87
21236;BME280;10775;42.678;26.324;2022-10-18T14:28:44;99627.75;;;19.60;46.31
21236;BME280;10775;42.678;26.324;2022-10-18T14:31:15;99640.66;;;19.69;46.52
21236;BME280;10775;42.678;26.324;2022-10-18T14:33:50;99641.91;;;19.81;46.04
21236;BME280;10775;42.678;26.324;2022-10-18T14:41:20;99629.06;;;19.50;46.77
21236;BME280;10775;42.678;26.324;2022-10-18T14:43:46;99622.19;;;19.24;47.38
21236;BME280;10775;42.678;26.324;2022-10-18T14:46:24;99625.13;;;19.38;47.13
21236;BME280;10775;42.678;26.324;2022-10-18T14:48:59;99619.75;;;19.40;47.27
21236;BME280;10775;42.678;26.324;2022-10-18T14:51:28;99623.94;;;19.45;47.01
21236;BME280;10775;42.678;26.324;2022-10-18T14:53:54;99614.53;;;19.38;46.57
21236;BME280;10775;42.678;26.324;2022-10-18T14:56:24;99606.31;;;19.22;47.35
21236;BME280;10775;42.678;26.324;2022-10-18T14:58:51;99606.69;;;19.35;47.21
21236;BME280;10775;42.678;26.324;2022-10-18T15:01:19;99606.09;;;19.28;47.28
21236;BME280;10775;42.678;26.324;2022-10-18T15:03:46;99604.97;;;19.12;47.64